Time;durP1;ratioP1;P1;durP2;ratioP2;P2;SDS_P1;SDS_P2;PMS_P1;PMS_P2;Temp;Humidity;BMP_temperature;BMP_pressure;BME280_temperature;BME280_humidity;BME280_pressure;Samples;Min_cycle;Max_cycle;Signal;HPM_P1;HPM_P2
2021/12/24 00:00:49;;;;;;;14.03;13.43;;;18.60;49.40;;;;;;5014232;28;20486;-50
2021/12/24 00:03:16;;;;;;;13.87;13.47;;;18.60;49.00;;;;;;5013876;28;20477;-47
2021/12/24 00:05:42;;;;;;;15.47;14.77;;;18.50;49.00;;;;;;5014417;28;20946;-49
2021/12/24 00:08:11;;;;;;;14.60;14.10;;;18.50;49.10;;;;;;5013354;28;20454;-49
2021/12/24 00:10:39;;;;;;;14.47;13.87;;;18.50;49.10;;;;;;5013913;28;20453;-49
2021/12/24 00:13:10;;;;;;;16.00;15.23;;;18.40;49.80;;;;;;5013476;28;20458;-47
2021/12/24 00:15:54;;;;;;;14.40;13.90;;;18.30;50.90;;;;;;5013456;28;21005;-49
2021/12/24 00:18:32;;;;;;;14.50;13.97;;;18.30;51.50;;;;;;5012866;28;20446;-50
2021/12/24 00:37:48;;;;;;;14.90;14.30;;;18.10;53.80;;;;;;4998082;28;20959;-50
2021/12/24 00:40:19;;;;;;;14.23;13.70;;;18.10;54.10;;;;;;5013009;28;21006;-47
2021/12/24 00:42:48;;;;;;;13.87;13.37;;;18.10;54.10;;;;;;5013024;28;20508;-47
2021/12/24 00:45:18;;;;;;;15.27;14.57;;;18.00;54.20;;;;;;5013381;28;20465;-48
2021/12/24 00:47:46;;;;;;;15.40;14.80;;;18.00;53.90;;;;;;5013315;28;20453;-47
2021/12/24 00:50:18;;;;;;;15.80;15.10;;;18.00;53.80;;;;;;5013040;28;20447;-52
2021/12/24 00:52:52;;;;;;;14.37;13.87;;;18.00;53.80;;;;;;5012874;28;20485;-49
2021/12/24 00:55:25;;;;;;;14.23;13.73;;;17.90;53.60;;;;;;5013152;28;20990;-49
2021/12/24 00:57:53;;;;;;;15.10;14.50;;;17.90;53.50;;;;;;5013349;28;20457;-47
2021/12/24 01:00:24;;;;;;;16.00;15.30;;;17.90;53.40;;;;;;5012790;28;21044;-48
2021/12/24 01:02:52;;;;;;;15.40;14.70;;;17.90;53.40;;;;;;5012980;28;20809;-51
2021/12/24 01:05:21;;;;;;;14.23;13.63;;;17.90;54.00;;;;;;5012875;28;20936;-47
2021/12/24 01:07:49;;;;;;;14.83;14.23;;;17.90;53.50;;;;;;5012755;28;20859;-51
2021/12/24 01:10:18;;;;;;;15.43;14.83;;;17.80;53.30;;;;;;5012346;28;20438;-50
2021/12/24 01:12:46;;;;;;;15.30;14.70;;;17.90;53.50;;;;;;5012585;28;20465;-49
2021/12/24 01:15:15;;;;;;;15.77;15.07;;;17.80;53.40;;;;;;5012852;28;20527;-47
2021/12/24 01:17:46;;;;;;;15.63;14.93;;;17.80;53.40;;;;;;5012746;28;20504;-50
2021/12/24 01:20:23;;;;;;;16.80;16.00;;;17.80;53.40;;;;;;5012457;28;20516;-50
2021/12/24 01:23:29;;;;;;;15.30;14.70;;;17.80;53.50;;;;;;5012252;28;20472;-49
2021/12/24 01:25:57;;;;;;;16.20;15.50;;;17.80;53.40;;;;;;5012686;28;20822;-48
2021/12/24 01:28:37;;;;;;;14.83;14.20;;;17.70;53.70;;;;;;5012599;28;20512;-51
2021/12/24 01:39:25;;;;;;;15.40;14.70;;;17.70;53.60;;;;;;5012373;28;20473;-50
2021/12/24 01:44:39;;;;;;;15.90;15.10;;;17.60;53.90;;;;;;5012374;28;20546;-49
2021/12/24 01:47:08;;;;;;;16.57;15.80;;;17.70;54.00;;;;;;5012303;28;20446;-50
2021/12/24 01:49:35;;;;;;;14.80;14.30;;;17.60;53.80;;;;;;5012220;28;20438;-51
2021/12/24 01:52:03;;;;;;;14.87;14.27;;;17.70;53.70;;;;;;5011516;28;20450;-49
2021/12/24 01:54:31;;;;;;;15.13;14.53;;;17.70;53.60;;;;;;5012120;28;20474;-51
2021/12/24 01:56:58;;;;;;;14.60;14.10;;;17.70;53.80;;;;;;5011774;28;20874;-49
2021/12/24 01:59:25;;;;;;;15.10;14.40;;;17.60;53.80;;;;;;5011955;28;20481;-50
2021/12/24 02:01:53;;;;;;;15.87;15.03;;;17.60;54.00;;;;;;5011906;28;20971;-46
2021/12/24 02:04:21;;;;;;;14.77;14.17;;;17.60;53.90;;;;;;5012466;28;20485;-51
2021/12/24 02:06:50;;;;;;;15.27;14.57;;;17.70;54.00;;;;;;5011678;28;20450;-48
2021/12/24 02:09:17;;;;;;;15.17;14.57;;;17.60;53.80;;;;;;5011966;28;20809;-45
2021/12/24 02:11:44;;;;;;;15.33;14.77;;;17.70;53.80;;;;;;5011676;28;20966;-51
2021/12/24 02:14:14;;;;;;;15.00;14.50;;;17.60;53.80;;;;;;5011754;28;20474;-45
2021/12/24 02:16:54;;;;;;;15.13;14.60;;;17.60;54.00;;;;;;5011681;28;20469;-45
2021/12/24 02:30:33;;;;;;;15.53;14.83;;;17.50;54.10;;;;;;5011824;28;20456;-52
2021/12/24 02:33:01;;;;;;;15.43;14.73;;;17.60;54.20;;;;;;5011384;28;20438;-46
2021/12/24 02:35:28;;;;;;;15.50;14.90;;;17.50;54.20;;;;;;5011538;28;20453;-48
2021/12/24 02:37:56;;;;;;;15.73;15.13;;;17.50;54.10;;;;;;5011406;28;20446;-50
2021/12/24 02:40:23;;;;;;;16.10;15.40;;;17.50;54.10;;;;;;5011524;28;20573;-45
2021/12/24 02:42:53;;;;;;;16.27;15.57;;;17.50;54.30;;;;;;5011768;28;20449;-46
2021/12/24 02:45:21;;;;;;;15.57;14.87;;;17.50;54.20;;;;;;5011732;28;20454;-46
2021/12/24 02:48:10;;;;;;;13.80;13.30;;;17.40;54.90;;;;;;5011542;28;20446;-48
2021/12/24 02:56:11;;;;;;;15.43;14.53;;;17.50;54.20;;;;;;5011580;28;20508;-46
2021/12/24 02:58:40;;;;;;;14.53;14.03;;;17.50;54.30;;;;;;5010969;28;20902;-45
2021/12/24 03:01:07;;;;;;;14.23;13.73;;;17.50;54.00;;;;;;5011323;28;20891;-48
2021/12/24 03:03:34;;;;;;;16.13;15.53;;;17.50;54.00;;;;;;5011237;28;20849;-51
2021/12/24 03:06:01;;;;;;;15.33;14.73;;;17.50;54.10;;;;;;5011363;28;20449;-46
2021/12/24 03:08:29;;;;;;;14.87;14.37;;;17.50;54.20;;;;;;5011290;28;20456;-48
2021/12/24 03:10:57;;;;;;;15.60;14.90;;;17.50;54.30;;;;;;5011245;28;20449;-50
2021/12/24 03:13:25;;;;;;;15.27;14.67;;;17.50;54.20;;;;;;5011138;28;20474;-46
2021/12/24 03:15:54;;;;;;;14.67;13.67;;;17.40;54.30;;;;;;5011339;28;20453;-46
2021/12/24 03:18:25;;;;;;;14.37;13.83;;;17.40;54.20;;;;;;5011003;28;20450;-45
2021/12/24 03:20:59;;;;;;;13.90;13.50;;;17.40;54.20;;;;;;5011340;28;20859;-46
2021/12/24 03:23:35;;;;;;;14.47;13.87;;;17.40;54.20;;;;;;5010984;28;20504;-49
2021/12/24 03:26:05;;;;;;;15.23;14.53;;;17.40;54.30;;;;;;5011221;28;20477;-46
2021/12/24 03:28:32;;;;;;;15.03;14.43;;;17.50;54.40;;;;;;5011034;28;20457;-48
2021/12/24 03:30:59;;;;;;;14.87;14.37;;;17.50;54.30;;;;;;5011291;28;20449;-48
2021/12/24 03:33:26;;;;;;;15.23;14.63;;;17.50;54.10;;;;;;5014239;28;20477;-47
2021/12/24 03:35:53;;;;;;;13.93;13.43;;;17.40;54.20;;;;;;5014876;28;20531;-45
2021/12/24 03:38:19;;;;;;;15.37;14.77;;;17.40;54.10;;;;;;5014558;28;20457;-46
2021/12/24 03:40:46;;;;;;;18.90;17.93;;;17.40;54.10;;;;;;5014666;28;20481;-49
2021/12/24 03:43:14;;;;;;;14.07;13.47;;;17.40;54.30;;;;;;5014601;28;20800;-49
2021/12/24 03:45:48;;;;;;;14.10;13.60;;;17.40;54.10;;;;;;5014722;28;20453;-45
2021/12/24 03:48:19;;;;;;;16.13;15.33;;;17.40;54.30;;;;;;5014266;28;20450;-51
2021/12/24 03:50:54;;;;;;;15.47;14.90;;;17.40;54.40;;;;;;5014634;28;20446;-46
2021/12/24 03:56:15;;;;;;;17.57;16.90;;;17.30;54.60;;;;;;4967552;28;20480;-46
2021/12/24 03:58:43;;;;;;;16.07;15.40;;;17.30;54.70;;;;;;5014050;28;20457;-46
2021/12/24 04:01:10;;;;;;;15.97;15.27;;;17.30;54.60;;;;;;5014308;28;20625;-48
2021/12/24 04:03:37;;;;;;;15.10;14.50;;;17.40;54.70;;;;;;5013812;28;20477;-48
2021/12/24 04:06:04;;;;;;;15.10;14.50;;;17.30;54.40;;;;;;5014071;28;20446;-47
2021/12/24 04:08:31;;;;;;;16.27;15.47;;;17.30;54.40;;;;;;5014143;28;20446;-49
2021/12/24 04:10:58;;;;;;;16.37;15.67;;;17.30;54.70;;;;;;5014134;28;20537;-46
2021/12/24 04:13:25;;;;;;;15.90;15.30;;;17.30;55.00;;;;;;5013898;28;20466;-47
2021/12/24 04:15:53;;;;;;;15.13;14.53;;;17.30;55.10;;;;;;5013883;28;20450;-46
2021/12/24 04:18:33;;;;;;;15.17;14.60;;;17.30;55.20;;;;;;5013985;28;20461;-46
2021/12/24 04:26:34;;;;;;;15.60;15.00;;;17.30;55.50;;;;;;5013777;28;20441;-46
2021/12/24 04:29:01;;;;;;;14.57;14.07;;;17.30;55.90;;;;;;5013583;28;20461;-46
2021/12/24 04:31:38;;;;;;;15.30;14.60;;;17.30;55.70;;;;;;5013642;28;20959;-47
2021/12/24 04:34:05;;;;;;;15.90;15.10;;;17.20;56.00;;;;;;5013609;28;20466;-46
2021/12/24 04:36:46;;;;;;;16.70;15.90;;;17.30;56.20;;;;;;5013323;28;20481;-47
2021/12/24 04:53:20;;;;;;;15.40;14.80;;;17.30;56.70;;;;;;5013392;28;20417;-48
2021/12/24 05:01:15;;;;;;;16.07;15.47;;;17.30;56.70;;;;;;5013384;28;20985;-51
2021/12/24 05:01:32;;;;;;;15.67;15.00;;;17.20;56.90;;;;;;5012917;28;20485;-47
2021/12/24 05:04:03;;;;;;;16.37;15.77;;;17.20;56.80;;;;;;5012944;28;20481;-48
2021/12/24 05:06:34;;;;;;;16.00;15.30;;;17.20;57.00;;;;;;5012957;28;20477;-46
2021/12/24 05:09:07;;;;;;;16.30;15.60;;;17.20;57.00;;;;;;5013196;28;20508;-46
2021/12/24 05:11:34;;;;;;;16.90;16.20;;;17.20;57.10;;;;;;5012855;28;20496;-46
2021/12/24 05:14:01;;;;;;;16.87;16.13;;;17.20;57.20;;;;;;5012855;28;20473;-51
2021/12/24 05:16:39;;;;;;;17.03;16.30;;;17.20;57.30;;;;;;5012577;28;20458;-46
2021/12/24 05:21:48;;;;;;;16.03;15.43;;;17.20;57.40;;;;;;5011613;28;20493;-45
2021/12/24 05:24:16;;;;;;;16.37;15.60;;;17.30;57.60;;;;;;5012735;28;20461;-47
2021/12/24 05:26:47;;;;;;;16.50;15.90;;;17.20;57.40;;;;;;5012539;28;20450;-49
2021/12/24 05:29:15;;;;;;;16.30;15.60;;;17.20;57.50;;;;;;5012727;28;20457;-49
2021/12/24 05:31:43;;;;;;;16.57;15.97;;;17.20;57.60;;;;;;5012422;28;20442;-47
2021/12/24 05:34:11;;;;;;;16.97;16.27;;;17.30;57.70;;;;;;5012518;28;20545;-46
2021/12/24 05:36:38;;;;;;;16.00;15.40;;;17.30;57.60;;;;;;5012380;28;20449;-47
2021/12/24 05:39:05;;;;;;;16.53;15.73;;;17.20;57.60;;;;;;5012484;28;20450;-46
2021/12/24 05:41:32;;;;;;;15.93;15.33;;;17.20;57.60;;;;;;5012406;28;20847;-46
2021/12/24 05:44:02;;;;;;;16.20;15.50;;;17.20;57.80;;;;;;5012370;28;20478;-45
2021/12/24 05:46:29;;;;;;;15.97;15.37;;;17.20;58.00;;;;;;5012013;28;20508;-46
2021/12/24 05:48:55;;;;;;;15.57;15.00;;;17.20;57.90;;;;;;5012373;28;20841;-48
2021/12/24 05:51:23;;;;;;;14.87;14.37;;;17.50;58.90;;;;;;5012253;28;20438;-46
2021/12/24 05:53:50;;;;;;;15.80;15.00;;;18.50;58.10;;;;;;5012081;28;20470;-46
2021/12/24 05:56:17;;;;;;;15.23;14.73;;;19.00;56.10;;;;;;5011814;28;20450;-45
2021/12/24 05:58:44;;;;;;;15.13;14.53;;;19.40;54.70;;;;;;5012278;28;20453;-47
2021/12/24 06:01:10;;;;;;;17.00;16.40;;;19.70;53.80;;;;;;5012148;28;20481;-46
2021/12/24 06:03:37;;;;;;;15.63;15.03;;;19.80;53.10;;;;;;5011469;28;20477;-48
2021/12/24 06:06:04;;;;;;;16.07;15.47;;;19.90;52.70;;;;;;5012113;28;20457;-46
2021/12/24 06:08:32;;;;;;;15.20;14.70;;;19.90;52.30;;;;;;5012121;28;20450;-47
2021/12/24 06:10:59;;;;;;;15.30;14.80;;;20.00;52.10;;;;;;5012001;28;20446;-48
2021/12/24 06:13:27;;;;;;;15.83;15.27;;;20.00;51.70;;;;;;5011510;28;20528;-50
2021/12/24 06:15:54;;;;;;;16.33;15.63;;;20.00;51.70;;;;;;5012173;28;20737;-46
2021/12/24 06:18:24;;;;;;;15.13;14.53;;;20.00;51.50;;;;;;5011636;28;20458;-45
2021/12/24 06:20:51;;;;;;;15.77;15.17;;;20.00;51.50;;;;;;5011918;28;20569;-47
2021/12/24 06:23:20;;;;;;;16.97;16.27;;;20.10;51.30;;;;;;5011667;28;20466;-46
2021/12/24 06:25:49;;;;;;;16.37;15.67;;;20.10;51.20;;;;;;4992361;28;20944;-47
2021/12/24 06:28:17;;;;;;;15.73;15.17;;;20.00;51.10;;;;;;4992218;28;20470;-48
2021/12/24 06:30:44;;;;;;;17.20;16.40;;;20.10;51.00;;;;;;4992126;28;20501;-47
2021/12/24 06:33:10;;;;;;;15.60;15.10;;;20.10;50.90;;;;;;4991902;28;20446;-45
2021/12/24 06:35:37;;;;;;;17.40;16.57;;;20.10;50.80;;;;;;5010554;28;20862;-47
2021/12/24 06:38:05;;;;;;;15.97;15.37;;;20.10;51.30;;;;;;5011773;28;20454;-45
2021/12/24 06:40:32;;;;;;;17.00;16.20;;;20.10;50.60;;;;;;5011650;28;20449;-48
2021/12/24 06:43:00;;;;;;;15.43;14.93;;;20.00;50.60;;;;;;5011492;28;20781;-48
2021/12/24 06:45:28;;;;;;;15.23;14.43;;;20.00;50.60;;;;;;5011375;28;20454;-49
2021/12/24 06:47:57;;;;;;;15.60;14.93;;;20.00;50.60;;;;;;5011714;28;20673;-47
2021/12/24 06:50:25;;;;;;;15.63;14.87;;;20.00;50.50;;;;;;5011609;28;20544;-46
2021/12/24 06:52:52;;;;;;;15.93;15.33;;;19.90;50.50;;;;;;5011499;28;20881;-49
2021/12/24 06:55:19;;;;;;;15.27;14.70;;;19.90;50.50;;;;;;5011280;28;20497;-46
2021/12/24 06:57:46;;;;;;;16.07;15.30;;;19.90;50.60;;;;;;5011552;28;20457;-46
2021/12/24 07:00:17;;;;;;;16.27;15.60;;;19.90;50.50;;;;;;5011455;28;20480;-46
2021/12/24 07:02:44;;;;;;;16.07;15.47;;;19.90;50.60;;;;;;5011266;28;20481;-49
2021/12/24 07:05:11;;;;;;;16.90;16.20;;;19.80;50.50;;;;;;5011219;28;20481;-49
2021/12/24 07:07:38;;;;;;;15.43;14.90;;;19.80;50.60;;;;;;5013732;28;20457;-48
2021/12/24 07:10:06;;;;;;;17.00;16.27;;;19.80;50.50;;;;;;5015560;28;20442;-46
2021/12/24 07:12:33;;;;;;;16.00;15.40;;;19.80;50.50;;;;;;5015004;28;20460;-46
2021/12/24 07:15:00;;;;;;;16.00;15.40;;;19.80;50.70;;;;;;5014834;28;20469;-46
2021/12/24 07:17:28;;;;;;;16.00;15.43;;;19.70;50.50;;;;;;5015144;28;20503;-46
2021/12/24 07:19:54;;;;;;;15.17;14.67;;;19.70;50.70;;;;;;5015141;28;20473;-46
2021/12/24 07:22:21;;;;;;;15.47;14.87;;;19.60;50.80;;;;;;5014280;28;20477;-45
2021/12/24 07:24:48;;;;;;;15.20;14.60;;;19.60;50.80;;;;;;5015083;28;20474;-46
2021/12/24 07:27:14;;;;;;;15.17;14.67;;;19.60;50.70;;;;;;5014982;28;20445;-47
2021/12/24 07:29:41;;;;;;;15.53;14.83;;;19.60;50.70;;;;;;5014890;28;20501;-46
2021/12/24 07:32:08;;;;;;;16.13;15.40;;;19.60;50.80;;;;;;5014395;28;20462;-46
2021/12/24 07:34:36;;;;;;;14.90;14.40;;;19.50;50.80;;;;;;5014915;28;20469;-46
2021/12/24 07:37:04;;;;;;;17.03;16.30;;;19.50;50.90;;;;;;5014833;28;20446;-46
2021/12/24 07:39:31;;;;;;;15.40;14.87;;;19.50;50.90;;;;;;5014722;28;20446;-46
2021/12/24 07:41:58;;;;;;;14.93;14.33;;;19.50;51.10;;;;;;5014480;28;20506;-51
2021/12/24 07:44:25;;;;;;;16.50;15.87;;;19.40;51.00;;;;;;4994958;28;20474;-48
2021/12/24 07:46:55;;;;;;;15.47;14.50;;;19.40;51.10;;;;;;4995083;28;20454;-45
2021/12/24 07:49:30;;;;;;;13.63;13.20;;;19.40;51.20;;;;;;4994975;28;20451;-45
2021/12/24 07:52:08;;;;;;;13.40;12.90;;;19.40;51.20;;;;;;4994897;28;20442;-46
2021/12/24 07:54:37;;;;;;;13.37;12.77;;;19.40;51.20;;;;;;5013882;28;20480;-50
2021/12/24 07:57:05;;;;;;;12.43;12.03;;;19.40;51.30;;;;;;5014483;28;20814;-51
2021/12/24 07:59:35;;;;;;;13.60;13.00;;;19.30;51.80;;;;;;5014390;28;20453;-46
2021/12/24 08:02:01;;;;;;;13.53;12.87;;;19.30;51.50;;;;;;5014096;28;20513;-46
2021/12/24 08:04:28;;;;;;;12.90;12.40;;;19.30;51.50;;;;;;5014153;28;20497;-54
2021/12/24 08:06:55;;;;;;;14.00;13.50;;;19.30;51.40;;;;;;5014279;28;20525;-49
2021/12/24 08:09:23;;;;;;;14.00;13.40;;;19.30;51.50;;;;;;5014114;28;20454;-51
2021/12/24 08:11:50;;;;;;;14.80;14.00;;;19.20;51.90;;;;;;5014022;28;20500;-50
2021/12/24 08:14:16;;;;;;;14.13;13.60;;;19.10;52.00;;;;;;5013671;28;20470;-49
2021/12/24 08:16:44;;;;;;;15.23;14.53;;;19.00;52.50;;;;;;5014007;28;20453;-49
2021/12/24 08:19:11;;;;;;;14.07;13.17;;;18.90;52.80;;;;;;5014089;28;20814;-47
2021/12/24 08:21:38;;;;;;;14.30;13.60;;;18.90;53.00;;;;;;5013799;28;20485;-50
2021/12/24 08:24:05;;;;;;;13.23;12.53;;;18.80;53.10;;;;;;5013737;28;20986;-49
2021/12/24 08:26:33;;;;;;;13.03;12.63;;;18.80;53.10;;;;;;5013904;28;20874;-52
2021/12/24 08:29:00;;;;;;;13.60;13.00;;;18.70;53.00;;;;;;5013893;28;20450;-48
2021/12/24 08:31:26;;;;;;;13.70;13.00;;;18.70;53.00;;;;;;5013738;28;20442;-48
2021/12/24 08:33:53;;;;;;;14.23;13.57;;;18.70;53.00;;;;;;5013578;28;20470;-52
2021/12/24 08:36:20;;;;;;;13.60;13.00;;;18.60;53.10;;;;;;5013657;28;20449;-47
2021/12/24 08:38:47;;;;;;;13.00;12.40;;;18.60;53.00;;;;;;5013705;28;20445;-47
2021/12/24 08:41:13;;;;;;;12.60;12.10;;;18.60;53.10;;;;;;5013407;28;20446;-47
2021/12/24 08:43:41;;;;;;;13.13;12.73;;;18.50;53.10;;;;;;5013278;28;20988;-50
2021/12/24 08:46:08;;;;;;;13.60;13.00;;;18.50;53.10;;;;;;5013567;28;20805;-50
2021/12/24 08:48:35;;;;;;;14.33;13.70;;;18.50;53.20;;;;;;5013434;28;20458;-54
2021/12/24 08:51:01;;;;;;;11.87;11.47;;;18.40;53.10;;;;;;5013485;28;20454;-50
2021/12/24 08:53:28;;;;;;;11.70;11.30;;;18.40;53.70;;;;;;5012985;28;20481;-48
2021/12/24 08:55:55;;;;;;;12.70;12.07;;;18.40;53.10;;;;;;5013428;28;20967;-50
2021/12/24 08:58:21;;;;;;;12.80;12.30;;;18.50;53.20;;;;;;5013259;28;20449;-47
2021/12/24 09:00:50;;;;;;;13.17;12.57;;;18.70;52.90;;;;;;5013277;28;20452;-49
2021/12/24 09:03:17;;;;;;;12.03;11.63;;;18.90;52.60;;;;;;5012754;28;20482;-48
2021/12/24 09:05:44;;;;;;;12.60;12.20;;;19.00;52.20;;;;;;5013107;28;20453;-47
2021/12/24 09:08:10;;;;;;;12.40;12.00;;;19.00;51.90;;;;;;5013100;28;20450;-49
2021/12/24 09:10:37;;;;;;;12.23;11.73;;;19.10;51.60;;;;;;5013042;28;20454;-51
2021/12/24 09:13:04;;;;;;;11.67;11.27;;;19.10;51.60;;;;;;5012753;28;20441;-47
2021/12/24 09:15:31;;;;;;;12.77;12.37;;;19.10;51.40;;;;;;5013087;28;20458;-47
2021/12/24 09:18:00;;;;;;;13.40;12.90;;;19.10;51.30;;;;;;5012961;28;20450;-49
2021/12/24 09:20:32;;;;;;;12.33;11.93;;;19.20;51.30;;;;;;5012982;28;20452;-48
2021/12/24 09:23:00;;;;;;;12.30;11.90;;;19.20;51.20;;;;;;5012559;28;20485;-47
2021/12/24 09:25:28;;;;;;;12.83;12.30;;;19.20;51.20;;;;;;5012782;28;20449;-47
2021/12/24 09:27:55;;;;;;;12.80;12.30;;;19.20;51.00;;;;;;5012825;28;20927;-48
2021/12/24 09:30:22;;;;;;;12.57;12.17;;;19.20;50.90;;;;;;5012204;28;20824;-48
2021/12/24 09:32:49;;;;;;;12.03;11.63;;;19.20;50.90;;;;;;5012617;28;20524;-48
2021/12/24 09:35:18;;;;;;;12.77;12.37;;;19.10;50.90;;;;;;5012665;28;20872;-49
2021/12/24 09:37:45;;;;;;;12.90;12.50;;;19.10;50.90;;;;;;5012680;28;20450;-47
2021/12/24 09:40:13;;;;;;;13.20;12.80;;;19.10;50.90;;;;;;5012655;28;20446;-47
2021/12/24 09:42:41;;;;;;;12.80;12.30;;;19.10;50.80;;;;;;5012307;28;20853;-50
2021/12/24 09:45:09;;;;;;;13.80;13.30;;;19.00;50.90;;;;;;5012444;28;20471;-49
2021/12/24 09:47:36;;;;;;;13.23;12.53;;;19.00;50.90;;;;;;5012372;28;20454;-48
2021/12/24 09:50:05;;;;;;;14.13;13.63;;;19.00;51.00;;;;;;5012345;28;20453;-48
2021/12/24 09:52:34;;;;;;;14.27;13.77;;;18.90;50.90;;;;;;5012062;28;20442;-50
2021/12/24 09:55:08;;;;;;;12.50;12.10;;;18.80;51.00;;;;;;5012296;28;20470;-49
2021/12/24 09:57:34;;;;;;;12.53;11.90;;;18.80;51.10;;;;;;5012316;28;20454;-47
2021/12/24 10:00:01;;;;;;;12.73;12.23;;;18.80;51.30;;;;;;5012123;28;20935;-48
2021/12/24 10:02:40;;;;;;;13.57;13.10;;;18.80;51.50;;;;;;5011938;28;20490;-49
2021/12/24 10:05:24;;;;;;;13.10;12.70;;;18.80;51.40;;;;;;5012004;28;20482;-47
2021/12/24 10:07:53;;;;;;;12.17;11.70;;;18.80;51.40;;;;;;5012051;28;20458;-52
2021/12/24 10:10:25;;;;;;;13.70;13.10;;;18.80;51.30;;;;;;5012101;28;20458;-49
2021/12/24 10:12:52;;;;;;;12.47;11.97;;;18.70;51.30;;;;;;5011884;28;20500;-50
2021/12/24 10:15:20;;;;;;;11.67;11.27;;;18.70;51.40;;;;;;5010919;28;20469;-48
2021/12/24 10:17:46;;;;;;;13.13;12.63;;;18.60;51.40;;;;;;5011183;28;20516;-47
2021/12/24 10:20:16;;;;;;;12.90;12.50;;;18.60;51.80;;;;;;5011320;28;20508;-48
2021/12/24 10:22:44;;;;;;;14.10;13.50;;;18.60;52.40;;;;;;5010803;28;20482;-49
2021/12/24 10:25:13;;;;;;;13.33;12.67;;;18.50;52.90;;;;;;5011481;28;20874;-49
2021/12/24 10:27:42;;;;;;;14.07;13.57;;;18.50;53.60;;;;;;5011801;28;20500;-46
2021/12/24 10:30:18;;;;;;;13.60;13.10;;;18.50;54.30;;;;;;5011785;28;20450;-46
2021/12/24 10:32:45;;;;;;;13.77;13.03;;;18.40;54.50;;;;;;5008389;28;20449;-49
2021/12/24 10:35:19;;;;;;;12.80;12.40;;;18.40;54.90;;;;;;5011964;28;20469;-47
2021/12/24 10:37:46;;;;;;;11.40;10.80;;;18.40;55.10;;;;;;5006955;28;20439;-49
2021/12/24 10:40:14;;;;;;;13.53;13.13;;;18.40;55.20;;;;;;5011674;28;20939;-48
2021/12/24 10:42:43;;;;;;;13.40;12.90;;;18.40;54.80;;;;;;5014019;28;20493;-47
2021/12/24 10:45:17;;;;;;;13.40;12.90;;;18.40;55.20;;;;;;5015706;28;20476;-49
2021/12/24 10:47:45;;;;;;;12.07;11.60;;;18.40;55.40;;;;;;5015321;28;20456;-48
2021/12/24 10:50:28;;;;;;;12.80;12.30;;;18.40;55.60;;;;;;5015946;28;20811;-48
2021/12/24 10:53:13;;;;;;;13.43;12.83;;;18.40;55.70;;;;;;5015284;28;20500;-49
2021/12/24 10:55:51;;;;;;;12.70;12.30;;;18.50;55.80;;;;;;4996250;28;21117;-49
2021/12/24 10:58:19;;;;;;;13.83;13.23;;;18.60;55.60;;;;;;4996098;28;20450;-47
2021/12/24 11:00:48;;;;;;;13.57;13.00;;;18.60;55.30;;;;;;4995891;28;20450;-47
2021/12/24 11:03:19;;;;;;;14.60;14.00;;;18.70;55.30;;;;;;4997161;28;20494;-46
2021/12/24 11:05:48;;;;;;;12.70;12.30;;;18.80;55.30;;;;;;5015352;28;20457;-48
2021/12/24 11:08:17;;;;;;;13.30;12.80;;;18.80;55.00;;;;;;5015455;28;20449;-46
2021/12/24 11:10:48;;;;;;;15.07;14.37;;;18.90;55.00;;;;;;5015279;28;20437;-47
2021/12/24 11:13:18;;;;;;;14.13;13.33;;;18.90;55.00;;;;;;5014800;28;20458;-47
2021/12/24 11:15:48;;;;;;;14.57;13.60;;;19.00;55.00;;;;;;5014990;28;20808;-47
2021/12/24 11:18:18;;;;;;;13.13;12.63;;;18.90;54.90;;;;;;5015277;28;20442;-51
2021/12/24 11:20:50;;;;;;;13.30;12.80;;;18.90;54.90;;;;;;5015184;28;20449;-48
2021/12/24 11:23:18;;;;;;;14.43;13.73;;;18.90;54.70;;;;;;5014832;28;20864;-45
2021/12/24 11:25:48;;;;;;;13.40;12.80;;;19.00;55.20;;;;;;5014875;28;20446;-50
2021/12/24 11:28:16;;;;;;;13.20;12.70;;;19.00;55.20;;;;;;5015078;28;20450;-48
2021/12/24 11:30:45;;;;;;;14.50;13.90;;;19.00;55.20;;;;;;5014747;28;20449;-47
2021/12/24 11:33:16;;;;;;;13.67;13.13;;;19.10;55.20;;;;;;5013740;28;20453;-46
2021/12/24 11:35:43;;;;;;;12.00;11.60;;;19.00;55.30;;;;;;5015106;28;20789;-45
2021/12/24 11:38:15;;;;;;;13.07;12.67;;;18.90;55.20;;;;;;5014680;28;20454;-47
2021/12/24 11:40:42;;;;;;;12.83;12.33;;;18.80;55.50;;;;;;5014262;28;20457;-46
2021/12/24 11:43:11;;;;;;;12.73;12.10;;;18.70;55.70;;;;;;5014454;28;20481;-49
2021/12/24 11:45:38;;;;;;;13.00;12.57;;;18.70;55.90;;;;;;5013850;28;20446;-46
2021/12/24 11:48:06;;;;;;;12.50;12.10;;;18.60;56.10;;;;;;5012784;28;21055;-45
2021/12/24 11:50:33;;;;;;;13.43;13.03;;;18.60;56.10;;;;;;5014655;28;20453;-48
2021/12/24 11:53:04;;;;;;;12.87;12.37;;;18.60;56.20;;;;;;5013877;28;20488;-48
2021/12/24 11:55:35;;;;;;;13.43;12.87;;;18.60;56.30;;;;;;5014580;28;20437;-48
2021/12/24 11:58:05;;;;;;;13.07;12.67;;;18.50;56.30;;;;;;5013899;28;20971;-49
2021/12/24 12:00:37;;;;;;;12.73;12.30;;;18.50;56.40;;;;;;5014486;28;20453;-47
2021/12/24 12:03:04;;;;;;;13.33;12.70;;;18.50;57.00;;;;;;5013886;28;20486;-51
2021/12/24 12:05:33;;;;;;;13.03;12.43;;;18.50;56.60;;;;;;5014480;28;20446;-49
2021/12/24 12:08:38;;;;;;;12.73;12.33;;;18.50;56.70;;;;;;5014005;28;20446;-49
2021/12/24 12:11:07;;;;;;;13.40;12.80;;;18.60;56.70;;;;;;5014131;28;20496;-48
2021/12/24 12:13:43;;;;;;;13.20;12.50;;;18.70;56.60;;;;;;5013974;28;20462;-47
2021/12/24 12:16:13;;;;;;;12.80;12.30;;;18.70;56.40;;;;;;5014269;28;20456;-48
2021/12/24 12:18:47;;;;;;;12.60;12.20;;;18.70;56.40;;;;;;5013275;28;20959;-47
2021/12/24 12:21:18;;;;;;;13.53;12.93;;;18.60;56.30;;;;;;4994501;28;20443;-47
2021/12/24 12:24:56;;;;;;;11.90;11.50;;;18.60;56.20;;;;;;4993393;28;20456;-48
2021/12/24 12:26:41;;;;;;;14.20;13.70;;;18.60;56.20;;;;;;4999088;28;20283;-48
2021/12/24 12:29:25;;;;;;;14.40;13.60;;;18.70;56.40;;;;;;5010388;28;20508;-47
2021/12/24 12:31:56;;;;;;;13.77;13.27;;;18.70;56.60;;;;;;5013883;28;20477;-48
2021/12/24 12:34:52;;;;;;;13.63;12.77;;;18.70;56.70;;;;;;5013763;28;20875;-48
2021/12/24 12:37:21;;;;;;;13.37;12.90;;;18.70;56.80;;;;;;5013670;28;20809;-50
2021/12/24 12:39:49;;;;;;;13.17;12.67;;;18.70;56.90;;;;;;5013526;28;20453;-47
2021/12/24 12:42:17;;;;;;;13.90;13.40;;;18.70;57.00;;;;;;5013319;28;20445;-48
2021/12/24 12:44:47;;;;;;;12.80;12.40;;;18.70;57.60;;;;;;5013281;28;20873;-47
2021/12/24 12:47:17;;;;;;;12.90;12.50;;;18.70;57.30;;;;;;5013604;28;20801;-47
2021/12/24 12:49:45;;;;;;;13.80;13.30;;;18.60;57.40;;;;;;5013254;28;20473;-47
2021/12/24 12:52:22;;;;;;;13.70;13.20;;;18.60;57.40;;;;;;5013088;28;20528;-48
2021/12/24 12:54:50;;;;;;;13.10;12.70;;;18.60;57.60;;;;;;5013044;28;20470;-48
2021/12/24 12:57:24;;;;;;;12.13;11.83;;;18.60;57.60;;;;;;5013252;28;20546;-51
2021/12/24 13:00:23;;;;;;;13.70;13.30;;;18.60;57.80;;;;;;5013424;28;20537;-48
2021/12/24 13:03:11;;;;;;;13.50;13.00;;;18.60;57.90;;;;;;5012736;28;20845;-49
2021/12/24 13:06:13;;;;;;;13.10;12.60;;;18.50;57.80;;;;;;5010656;28;20944;-50
2021/12/24 13:08:41;;;;;;;14.53;14.03;;;18.50;58.00;;;;;;4933440;29;20540;-46
2021/12/24 13:11:10;;;;;;;13.30;12.90;;;18.50;58.00;;;;;;4933304;29;20469;-48
2021/12/24 13:13:57;;;;;;;13.80;13.30;;;18.50;58.10;;;;;;4965779;28;21221;-49
2021/12/24 13:16:30;;;;;;;13.17;12.77;;;18.50;58.20;;;;;;5011702;28;20457;-54
2021/12/24 13:19:19;;;;;;;13.47;12.87;;;18.50;58.00;;;;;;5012611;28;20508;-46
2021/12/24 13:24:36;;;;;;;13.03;12.43;;;18.60;58.00;;;;;;5012842;28;20230;-49
2021/12/24 13:27:04;;;;;;;14.03;13.23;;;18.60;57.90;;;;;;5012804;28;20813;-46
2021/12/24 13:29:30;;;;;;;15.60;14.47;;;18.70;62.50;;;;;;5012085;28;21023;-48
2021/12/24 13:31:59;;;;;;;20.13;17.03;;;18.70;73.00;;;;;;5012296;28;20454;-47
2021/12/24 13:34:27;;;;;;;20.63;16.43;;;18.80;97.00;;;;;;5012572;28;20462;-47
2021/12/24 13:36:55;;;;;;;17.47;14.80;;;18.80;99.90;;;;;;5012712;28;20461;-46
2021/12/24 13:39:23;;;;;;;15.83;14.20;;;18.90;99.90;;;;;;5012340;28;20508;-46
2021/12/24 13:42:00;;;;;;;19.43;12.70;;;18.90;99.90;;;;;;5012312;28;20552;-47
2021/12/24 13:44:29;;;;;;;19.53;12.73;;;19.00;99.90;;;;;;5012365;28;20488;-52
2021/12/24 13:47:01;;;;;;;14.93;13.37;;;19.00;99.90;;;;;;5012360;28;20453;-46
2021/12/24 13:49:46;;;;;;;18.03;13.90;;;18.90;99.90;;;;;;5012228;28;20445;-46
2021/12/24 13:54:58;;;;;;;19.83;14.75;;;18.80;99.90;;;;;;5012153;28;20411;-47
2021/12/24 13:57:25;;;;;;;17.53;16.00;;;18.70;99.90;;;;;;5012138;28;20209;-47
2021/12/24 13:59:52;;;;;;;15.67;14.10;;;18.70;99.90;;;;;;5012347;28;20800;-49